sensor_id;sensor_type;location;lat;lon;timestamp;temperature;humidity
14733;DHT22;7457;50.960;6.830;2023-04-25T00:01:05;6.30;85.60
14733;DHT22;7457;50.960;6.830;2023-04-25T00:03:31;6.30;85.80
14733;DHT22;7457;50.960;6.830;2023-04-25T00:05:58;6.40;85.60
14733;DHT22;7457;50.960;6.830;2023-04-25T00:08:28;6.40;85.50
14733;DHT22;7457;50.960;6.830;2023-04-25T00:10:53;6.40;85.50
14733;DHT22;7457;50.960;6.830;2023-04-25T00:13:19;6.30;85.50
14733;DHT22;7457;50.960;6.830;2023-04-25T00:15:45;6.30;85.40
14733;DHT22;7457;50.960;6.830;2023-04-25T00:18:11;6.30;85.60
14733;DHT22;7457;50.960;6.830;2023-04-25T00:20:37;6.20;85.50
14733;DHT22;7457;50.960;6.830;2023-04-25T00:23:05;6.20;85.60
14733;DHT22;7457;50.960;6.830;2023-04-25T00:25:31;6.10;85.70
14733;DHT22;7457;50.960;6.830;2023-04-25T00:27:56;6.00;85.90
14733;DHT22;7457;50.960;6.830;2023-04-25T00:30:22;6.00;85.90
14733;DHT22;7457;50.960;6.830;2023-04-25T00:32:47;6.00;86.10
14733;DHT22;7457;50.960;6.830;2023-04-25T00:35:14;5.90;86.10
14733;DHT22;7457;50.960;6.830;2023-04-25T00:37:40;5.90;86.20
14733;DHT22;7457;50.960;6.830;2023-04-25T00:40:06;5.90;86.20
14733;DHT22;7457;50.960;6.830;2023-04-25T00:42:33;5.90;86.40
14733;DHT22;7457;50.960;6.830;2023-04-25T00:44:59;5.80;86.30
14733;DHT22;7457;50.960;6.830;2023-04-25T00:47:26;5.80;86.40
14733;DHT22;7457;50.960;6.830;2023-04-25T00:49:51;5.80;86.50
14733;DHT22;7457;50.960;6.830;2023-04-25T00:52:19;5.70;86.50
14733;DHT22;7457;50.960;6.830;2023-04-25T00:54:45;5.70;86.90
14733;DHT22;7457;50.960;6.830;2023-04-25T00:57:10;5.60;86.80
14733;DHT22;7457;50.960;6.830;2023-04-25T00:59:37;5.60;86.80
14733;DHT22;7457;50.960;6.830;2023-04-25T01:02:04;5.60;87.00
14733;DHT22;7457;50.960;6.830;2023-04-25T01:04:30;5.60;87.10
14733;DHT22;7457;50.960;6.830;2023-04-25T01:06:56;5.50;87.40
14733;DHT22;7457;50.960;6.830;2023-04-25T01:09:22;5.50;87.40
14733;DHT22;7457;50.960;6.830;2023-04-25T01:11:49;5.50;87.30
14733;DHT22;7457;50.960;6.830;2023-04-25T01:14:15;5.40;87.30
14733;DHT22;7457;50.960;6.830;2023-04-25T01:16:40;5.40;87.30
14733;DHT22;7457;50.960;6.830;2023-04-25T01:19:10;5.40;87.40
14733;DHT22;7457;50.960;6.830;2023-04-25T01:21:39;5.40;87.40
14733;DHT22;7457;50.960;6.830;2023-04-25T01:24:05;5.30;87.70
14733;DHT22;7457;50.960;6.830;2023-04-25T01:26:32;5.30;87.70
14733;DHT22;7457;50.960;6.830;2023-04-25T01:28:59;5.20;87.90
14733;DHT22;7457;50.960;6.830;2023-04-25T01:31:25;5.20;87.90
14733;DHT22;7457;50.960;6.830;2023-04-25T01:33:51;5.10;88.00
14733;DHT22;7457;50.960;6.830;2023-04-25T01:36:17;5.10;88.10
14733;DHT22;7457;50.960;6.830;2023-04-25T01:38:43;5.10;88.20
14733;DHT22;7457;50.960;6.830;2023-04-25T01:41:11;5.10;88.60
14733;DHT22;7457;50.960;6.830;2023-04-25T01:43:37;5.10;89.00
14733;DHT22;7457;50.960;6.830;2023-04-25T01:46:03;5.10;89.20
14733;DHT22;7457;50.960;6.830;2023-04-25T01:48:29;5.10;89.20
14733;DHT22;7457;50.960;6.830;2023-04-25T01:50:54;5.20;89.20
14733;DHT22;7457;50.960;6.830;2023-04-25T01:53:20;5.10;89.20
14733;DHT22;7457;50.960;6.830;2023-04-25T01:55:46;5.20;89.10
14733;DHT22;7457;50.960;6.830;2023-04-25T01:58:12;5.20;89.00
14733;DHT22;7457;50.960;6.830;2023-04-25T02:00:38;5.10;89.20
14733;DHT22;7457;50.960;6.830;2023-04-25T02:03:05;5.10;89.30
14733;DHT22;7457;50.960;6.830;2023-04-25T02:05:38;5.10;89.40
14733;DHT22;7457;50.960;6.830;2023-04-25T02:08:07;5.10;89.50
14733;DHT22;7457;50.960;6.830;2023-04-25T02:10:34;5.20;89.70
14733;DHT22;7457;50.960;6.830;2023-04-25T02:13:00;5.20;89.80
14733;DHT22;7457;50.960;6.830;2023-04-25T02:15:26;5.20;89.80
14733;DHT22;7457;50.960;6.830;2023-04-25T02:17:52;5.30;89.80
14733;DHT22;7457;50.960;6.830;2023-04-25T02:20:18;5.40;89.60
14733;DHT22;7457;50.960;6.830;2023-04-25T02:22:45;5.40;89.70
14733;DHT22;7457;50.960;6.830;2023-04-25T02:25:11;5.50;89.40
14733;DHT22;7457;50.960;6.830;2023-04-25T02:27:37;5.50;89.20
14733;DHT22;7457;50.960;6.830;2023-04-25T02:30:04;5.60;89.00
14733;DHT22;7457;50.960;6.830;2023-04-25T02:32:30;5.60;88.90
14733;DHT22;7457;50.960;6.830;2023-04-25T02:34:56;5.70;88.70
14733;DHT22;7457;50.960;6.830;2023-04-25T02:37:24;5.70;88.80
14733;DHT22;7457;50.960;6.830;2023-04-25T02:39:49;5.70;88.50
14733;DHT22;7457;50.960;6.830;2023-04-25T02:42:15;5.70;88.30
14733;DHT22;7457;50.960;6.830;2023-04-25T02:44:41;5.70;88.20
14733;DHT22;7457;50.960;6.830;2023-04-25T02:47:07;5.80;88.20
14733;DHT22;7457;50.960;6.830;2023-04-25T02:49:32;5.70;88.40
14733;DHT22;7457;50.960;6.830;2023-04-25T02:51:58;5.80;88.40
14733;DHT22;7457;50.960;6.830;2023-04-25T02:54:23;5.70;88.40
14733;DHT22;7457;50.960;6.830;2023-04-25T02:56:49;5.70;88.40
14733;DHT22;7457;50.960;6.830;2023-04-25T02:59:15;5.70;88.50
14733;DHT22;7457;50.960;6.830;2023-04-25T03:01:40;5.70;88.60
14733;DHT22;7457;50.960;6.830;2023-04-25T03:04:06;5.70;88.50
14733;DHT22;7457;50.960;6.830;2023-04-25T03:06:32;5.70;88.40
14733;DHT22;7457;50.960;6.830;2023-04-25T03:08:57;5.70;88.30
14733;DHT22;7457;50.960;6.830;2023-04-25T03:11:25;5.70;88.40
14733;DHT22;7457;50.960;6.830;2023-04-25T03:13:51;5.60;88.50
14733;DHT22;7457;50.960;6.830;2023-04-25T03:16:16;5.60;88.50
14733;DHT22;7457;50.960;6.830;2023-04-25T03:18:42;5.60;88.70
14733;DHT22;7457;50.960;6.830;2023-04-25T03:21:08;5.60;88.80
14733;DHT22;7457;50.960;6.830;2023-04-25T03:23:33;5.60;88.80
14733;DHT22;7457;50.960;6.830;2023-04-25T03:25:59;5.60;88.90
14733;DHT22;7457;50.960;6.830;2023-04-25T03:28:25;5.50;89.00
14733;DHT22;7457;50.960;6.830;2023-04-25T03:30:50;5.50;89.30
14733;DHT22;7457;50.960;6.830;2023-04-25T03:33:16;5.50;89.50
14733;DHT22;7457;50.960;6.830;2023-04-25T03:35:42;5.50;89.30
14733;DHT22;7457;50.960;6.830;2023-04-25T03:38:08;5.50;89.30
14733;DHT22;7457;50.960;6.830;2023-04-25T03:40:33;5.50;89.50
14733;DHT22;7457;50.960;6.830;2023-04-25T03:42:59;5.50;89.60
14733;DHT22;7457;50.960;6.830;2023-04-25T03:45:25;5.50;89.50
14733;DHT22;7457;50.960;6.830;2023-04-25T03:47:50;5.50;89.60
14733;DHT22;7457;50.960;6.830;2023-04-25T03:50:16;5.50;89.60
14733;DHT22;7457;50.960;6.830;2023-04-25T03:52:43;5.60;89.70
14733;DHT22;7457;50.960;6.830;2023-04-25T03:55:09;5.60;89.70
14733;DHT22;7457;50.960;6.830;2023-04-25T03:57:35;5.60;89.80
14733;DHT22;7457;50.960;6.830;2023-04-25T04:00:01;5.60;89.80
14733;DHT22;7457;50.960;6.830;2023-04-25T04:02:26;5.60;90.20
14733;DHT22;7457;50.960;6.830;2023-04-25T04:04:52;5.60;90.10
14733;DHT22;7457;50.960;6.830;2023-04-25T04:07:17;5.60;90.20
14733;DHT22;7457;50.960;6.830;2023-04-25T04:09:43;5.60;90.10
14733;DHT22;7457;50.960;6.830;2023-04-25T04:12:09;5.60;90.10
14733;DHT22;7457;50.960;6.830;2023-04-25T04:14:35;5.70;90.10
14733;DHT22;7457;50.960;6.830;2023-04-25T04:17:00;5.70;90.30
14733;DHT22;7457;50.960;6.830;2023-04-25T04:19:26;5.70;90.30
14733;DHT22;7457;50.960;6.830;2023-04-25T04:21:52;5.70;90.40
14733;DHT22;7457;50.960;6.830;2023-04-25T04:24:17;5.70;90.40
14733;DHT22;7457;50.960;6.830;2023-04-25T04:26:43;5.70;90.40
14733;DHT22;7457;50.960;6.830;2023-04-25T04:29:10;5.70;90.50
14733;DHT22;7457;50.960;6.830;2023-04-25T04:31:36;5.70;90.80
14733;DHT22;7457;50.960;6.830;2023-04-25T04:34:02;5.70;91.00
14733;DHT22;7457;50.960;6.830;2023-04-25T04:36:29;5.70;91.00
14733;DHT22;7457;50.960;6.830;2023-04-25T04:38:55;5.80;91.20
14733;DHT22;7457;50.960;6.830;2023-04-25T04:41:22;5.80;91.30
14733;DHT22;7457;50.960;6.830;2023-04-25T04:43:47;5.80;91.40
14733;DHT22;7457;50.960;6.830;2023-04-25T04:46:13;5.80;91.40
14733;DHT22;7457;50.960;6.830;2023-04-25T04:48:39;5.80;91.60
14733;DHT22;7457;50.960;6.830;2023-04-25T04:51:06;5.80;91.50
14733;DHT22;7457;50.960;6.830;2023-04-25T04:53:32;5.90;91.70
14733;DHT22;7457;50.960;6.830;2023-04-25T04:55:57;5.90;91.70
14733;DHT22;7457;50.960;6.830;2023-04-25T04:58:23;5.90;91.80
14733;DHT22;7457;50.960;6.830;2023-04-25T05:00:49;5.90;92.00
14733;DHT22;7457;50.960;6.830;2023-04-25T05:03:15;6.00;92.00
14733;DHT22;7457;50.960;6.830;2023-04-25T05:05:41;6.00;92.10
14733;DHT22;7457;50.960;6.830;2023-04-25T05:08:07;6.00;92.00
14733;DHT22;7457;50.960;6.830;2023-04-25T05:10:32;6.10;92.20
14733;DHT22;7457;50.960;6.830;2023-04-25T05:12:58;6.20;92.00
14733;DHT22;7457;50.960;6.830;2023-04-25T05:15:24;6.20;92.20
14733;DHT22;7457;50.960;6.830;2023-04-25T05:17:50;6.30;92.30
14733;DHT22;7457;50.960;6.830;2023-04-25T05:20:15;6.30;92.20
14733;DHT22;7457;50.960;6.830;2023-04-25T05:22:41;6.40;92.10
14733;DHT22;7457;50.960;6.830;2023-04-25T05:25:08;6.50;92.10
14733;DHT22;7457;50.960;6.830;2023-04-25T05:27:34;6.60;92.00
14733;DHT22;7457;50.960;6.830;2023-04-25T05:30:00;6.70;91.90
14733;DHT22;7457;50.960;6.830;2023-04-25T05:32:26;6.80;91.80
14733;DHT22;7457;50.960;6.830;2023-04-25T05:34:51;6.90;91.60
14733;DHT22;7457;50.960;6.830;2023-04-25T05:37:17;7.00;91.60
14733;DHT22;7457;50.960;6.830;2023-04-25T05:39:43;7.10;91.50
14733;DHT22;7457;50.960;6.830;2023-04-25T05:42:08;7.20;91.20
14733;DHT22;7457;50.960;6.830;2023-04-25T05:44:34;7.30;90.60
14733;DHT22;7457;50.960;6.830;2023-04-25T05:47:00;7.40;90.50
14733;DHT22;7457;50.960;6.830;2023-04-25T05:49:25;7.50;90.50
14733;DHT22;7457;50.960;6.830;2023-04-25T05:51:51;7.70;90.30
14733;DHT22;7457;50.960;6.830;2023-04-25T05:54:17;7.90;90.00
14733;DHT22;7457;50.960;6.830;2023-04-25T05:56:42;8.10;89.20
14733;DHT22;7457;50.960;6.830;2023-04-25T05:59:08;8.20;88.40
14733;DHT22;7457;50.960;6.830;2023-04-25T06:01:34;8.30;88.40
14733;DHT22;7457;50.960;6.830;2023-04-25T06:03:59;8.40;88.30
14733;DHT22;7457;50.960;6.830;2023-04-25T06:06:25;8.60;87.90
14733;DHT22;7457;50.960;6.830;2023-04-25T06:08:52;8.70;86.90
14733;DHT22;7457;50.960;6.830;2023-04-25T06:11:17;8.70;87.10
14733;DHT22;7457;50.960;6.830;2023-04-25T06:13:43;8.80;87.00
14733;DHT22;7457;50.960;6.830;2023-04-25T06:18:39;9.00;85.70
14733;DHT22;7457;50.960;6.830;2023-04-25T06:21:05;9.00;84.80
14733;DHT22;7457;50.960;6.830;2023-04-25T06:23:31;8.90;84.70
14733;DHT22;7457;50.960;6.830;2023-04-25T06:25:56;8.90;84.60
14733;DHT22;7457;50.960;6.830;2023-04-25T06:28:22;8.80;84.60
14733;DHT22;7457;50.960;6.830;2023-04-25T06:30:48;8.80;84.60
14733;DHT22;7457;50.960;6.830;2023-04-25T06:33:14;8.70;84.50
14733;DHT22;7457;50.960;6.830;2023-04-25T06:35:39;8.70;84.30
14733;DHT22;7457;50.960;6.830;2023-04-25T06:38:05;8.70;84.20
14733;DHT22;7457;50.960;6.830;2023-04-25T06:40:31;8.60;83.90
14733;DHT22;7457;50.960;6.830;2023-04-25T06:42:56;8.60;84.40
14733;DHT22;7457;50.960;6.830;2023-04-25T06:45:22;8.60;84.80
14733;DHT22;7457;50.960;6.830;2023-04-25T06:47:48;9.00;85.50
14733;DHT22;7457;50.960;6.830;2023-04-25T06:50:13;9.40;84.80
14733;DHT22;7457;50.960;6.830;2023-04-25T06:52:39;9.70;83.30
14733;DHT22;7457;50.960;6.830;2023-04-25T06:55:06;10.00;82.50
14733;DHT22;7457;50.960;6.830;2023-04-25T06:57:31;10.10;81.40
14733;DHT22;7457;50.960;6.830;2023-04-25T06:59:57;10.20;80.70
14733;DHT22;7457;50.960;6.830;2023-04-25T07:02:23;10.20;80.10
14733;DHT22;7457;50.960;6.830;2023-04-25T07:04:48;10.20;80.80
14733;DHT22;7457;50.960;6.830;2023-04-25T07:07:14;10.20;79.80
14733;DHT22;7457;50.960;6.830;2023-04-25T07:09:40;10.20;79.10
14733;DHT22;7457;50.960;6.830;2023-04-25T07:12:06;10.20;79.00
14733;DHT22;7457;50.960;6.830;2023-04-25T07:14:31;10.20;78.90
14733;DHT22;7457;50.960;6.830;2023-04-25T07:16:57;10.10;78.00
14733;DHT22;7457;50.960;6.830;2023-04-25T07:19:23;10.10;78.20
14733;DHT22;7457;50.960;6.830;2023-04-25T07:21:52;10.10;78.50
14733;DHT22;7457;50.960;6.830;2023-04-25T07:24:17;10.10;77.80
14733;DHT22;7457;50.960;6.830;2023-04-25T07:26:43;10.10;77.30
14733;DHT22;7457;50.960;6.830;2023-04-25T07:29:09;10.10;77.50
14733;DHT22;7457;50.960;6.830;2023-04-25T07:31:35;10.20;77.70
14733;DHT22;7457;50.960;6.830;2023-04-25T07:34:01;10.30;77.60
14733;DHT22;7457;50.960;6.830;2023-04-25T07:36:26;10.50;77.60
14733;DHT22;7457;50.960;6.830;2023-04-25T07:38:52;10.70;77.40
14733;DHT22;7457;50.960;6.830;2023-04-25T07:41:18;10.90;76.70
14733;DHT22;7457;50.960;6.830;2023-04-25T07:43:43;10.90;75.30
14733;DHT22;7457;50.960;6.830;2023-04-25T07:46:09;11.00;74.80
14733;DHT22;7457;50.960;6.830;2023-04-25T07:48:35;11.00;74.90
14733;DHT22;7457;50.960;6.830;2023-04-25T07:51:00;11.00;74.70
14733;DHT22;7457;50.960;6.830;2023-04-25T07:53:26;11.00;74.20
14733;DHT22;7457;50.960;6.830;2023-04-25T07:55:51;11.00;74.40
14733;DHT22;7457;50.960;6.830;2023-04-25T07:58:17;11.10;74.30
14733;DHT22;7457;50.960;6.830;2023-04-25T08:00:47;11.10;73.60
14733;DHT22;7457;50.960;6.830;2023-04-25T08:03:12;11.10;73.20
14733;DHT22;7457;50.960;6.830;2023-04-25T08:05:38;11.10;73.60
14733;DHT22;7457;50.960;6.830;2023-04-25T08:08:03;11.20;73.30
14733;DHT22;7457;50.960;6.830;2023-04-25T08:10:32;11.30;73.20
14733;DHT22;7457;50.960;6.830;2023-04-25T08:12:58;11.40;72.60
14733;DHT22;7457;50.960;6.830;2023-04-25T08:15:24;11.50;72.60
14733;DHT22;7457;50.960;6.830;2023-04-25T08:17:50;11.70;72.60
14733;DHT22;7457;50.960;6.830;2023-04-25T08:20:16;11.90;72.30
14733;DHT22;7457;50.960;6.830;2023-04-25T08:22:42;12.10;71.30
14733;DHT22;7457;50.960;6.830;2023-04-25T08:25:07;12.20;69.80
14733;DHT22;7457;50.960;6.830;2023-04-25T08:27:33;12.20;69.70
14733;DHT22;7457;50.960;6.830;2023-04-25T08:29:59;12.30;69.50
14733;DHT22;7457;50.960;6.830;2023-04-25T08:32:24;12.40;69.70
14733;DHT22;7457;50.960;6.830;2023-04-25T08:34:50;12.60;69.50
14733;DHT22;7457;50.960;6.830;2023-04-25T08:37:19;12.80;68.20
14733;DHT22;7457;50.960;6.830;2023-04-25T08:39:45;12.80;67.70
14733;DHT22;7457;50.960;6.830;2023-04-25T08:42:15;12.70;67.50
14733;DHT22;7457;50.960;6.830;2023-04-25T08:44:40;12.60;66.60
14733;DHT22;7457;50.960;6.830;2023-04-25T08:47:06;12.50;66.20
14733;DHT22;7457;50.960;6.830;2023-04-25T08:49:33;12.30;65.90
14733;DHT22;7457;50.960;6.830;2023-04-25T08:52:03;12.20;66.20
14733;DHT22;7457;50.960;6.830;2023-04-25T08:54:31;12.00;65.90
14733;DHT22;7457;50.960;6.830;2023-04-25T08:57:00;11.90;65.10
14733;DHT22;7457;50.960;6.830;2023-04-25T08:59:33;11.70;65.50
14733;DHT22;7457;50.960;6.830;2023-04-25T09:01:58;11.60;65.40
14733;DHT22;7457;50.960;6.830;2023-04-25T09:04:24;11.40;65.40
14733;DHT22;7457;50.960;6.830;2023-04-25T09:06:50;11.10;65.30
14733;DHT22;7457;50.960;6.830;2023-04-25T09:09:16;10.90;65.90
14733;DHT22;7457;50.960;6.830;2023-04-25T09:11:41;10.70;66.10
14733;DHT22;7457;50.960;6.830;2023-04-25T09:14:17;10.50;66.70
14733;DHT22;7457;50.960;6.830;2023-04-25T09:19:25;10.30;68.10
14733;DHT22;7457;50.960;6.830;2023-04-25T09:21:58;10.20;68.30
14733;DHT22;7457;50.960;6.830;2023-04-25T09:26:57;10.30;68.40
14733;DHT22;7457;50.960;6.830;2023-04-25T09:29:39;10.40;68.10
14733;DHT22;7457;50.960;6.830;2023-04-25T09:32:26;10.50;67.80
14733;DHT22;7457;50.960;6.830;2023-04-25T09:34:53;10.60;67.20
14733;DHT22;7457;50.960;6.830;2023-04-25T09:37:28;10.60;67.20
14733;DHT22;7457;50.960;6.830;2023-04-25T09:39:59;10.60;66.70
14733;DHT22;7457;50.960;6.830;2023-04-25T09:42:28;10.50;66.50
14733;DHT22;7457;50.960;6.830;2023-04-25T09:44:57;10.40;67.00
14733;DHT22;7457;50.960;6.830;2023-04-25T09:47:24;10.40;67.50
14733;DHT22;7457;50.960;6.830;2023-04-25T09:49:51;10.50;67.90
14733;DHT22;7457;50.960;6.830;2023-04-25T09:52:21;10.60;67.70
14733;DHT22;7457;50.960;6.830;2023-04-25T09:54:49;10.70;67.30
14733;DHT22;7457;50.960;6.830;2023-04-25T09:57:22;10.70;66.70
14733;DHT22;7457;50.960;6.830;2023-04-25T09:59:49;10.60;65.50
14733;DHT22;7457;50.960;6.830;2023-04-25T10:02:24;10.50;65.10
14733;DHT22;7457;50.960;6.830;2023-04-25T10:04:51;10.30;65.30
14733;DHT22;7457;50.960;6.830;2023-04-25T10:07:20;10.00;65.70
14733;DHT22;7457;50.960;6.830;2023-04-25T10:09:49;9.80;66.30
14733;DHT22;7457;50.960;6.830;2023-04-25T10:12:17;9.70;66.90
14733;DHT22;7457;50.960;6.830;2023-04-25T10:14:42;9.60;67.50
14733;DHT22;7457;50.960;6.830;2023-04-25T10:17:10;9.50;68.00
14733;DHT22;7457;50.960;6.830;2023-04-25T10:19:36;9.50;68.40
14733;DHT22;7457;50.960;6.830;2023-04-25T10:22:14;9.60;68.90
14733;DHT22;7457;50.960;6.830;2023-04-25T10:24:43;9.70;69.10
14733;DHT22;7457;50.960;6.830;2023-04-25T10:27:09;9.80;68.80
14733;DHT22;7457;50.960;6.830;2023-04-25T10:29:36;9.90;68.70
14733;DHT22;7457;50.960;6.830;2023-04-25T10:32:02;10.00;69.00
14733;DHT22;7457;50.960;6.830;2023-04-25T10:34:40;10.40;71.50
14733;DHT22;7457;50.960;6.830;2023-04-25T10:37:09;11.50;71.80
14733;DHT22;7457;50.960;6.830;2023-04-25T10:39:36;12.60;68.30
14733;DHT22;7457;50.960;6.830;2023-04-25T10:42:03;13.00;64.70
14733;DHT22;7457;50.960;6.830;2023-04-25T10:44:29;13.00;62.70
14733;DHT22;7457;50.960;6.830;2023-04-25T10:46:56;12.70;61.20
14733;DHT22;7457;50.960;6.830;2023-04-25T10:49:41;12.20;61.30
14733;DHT22;7457;50.960;6.830;2023-04-25T10:52:24;11.70;61.70
14733;DHT22;7457;50.960;6.830;2023-04-25T10:54:57;11.20;62.60
14733;DHT22;7457;50.960;6.830;2023-04-25T10:57:46;10.80;63.50
14733;DHT22;7457;50.960;6.830;2023-04-25T11:00:19;10.50;64.10
14733;DHT22;7457;50.960;6.830;2023-04-25T11:02:51;10.30;64.50
14733;DHT22;7457;50.960;6.830;2023-04-25T11:07:54;10.10;65.50
14733;DHT22;7457;50.960;6.830;2023-04-25T11:10:31;10.10;65.70
14733;DHT22;7457;50.960;6.830;2023-04-25T11:12:58;10.10;65.50
14733;DHT22;7457;50.960;6.830;2023-04-25T11:15:26;10.20;65.60
14733;DHT22;7457;50.960;6.830;2023-04-25T11:17:52;10.30;65.40
14733;DHT22;7457;50.960;6.830;2023-04-25T11:20:18;10.50;65.90
14733;DHT22;7457;50.960;6.830;2023-04-25T11:22:45;10.70;65.90
14733;DHT22;7457;50.960;6.830;2023-04-25T11:25:13;11.00;65.90
14733;DHT22;7457;50.960;6.830;2023-04-25T11:30:15;11.50;65.80
14733;DHT22;7457;50.960;6.830;2023-04-25T11:32:41;12.00;66.80
14733;DHT22;7457;50.960;6.830;2023-04-25T11:35:09;12.50;64.40
14733;DHT22;7457;50.960;6.830;2023-04-25T11:37:35;12.80;62.90
14733;DHT22;7457;50.960;6.830;2023-04-25T11:40:00;12.80;62.30
14733;DHT22;7457;50.960;6.830;2023-04-25T11:42:27;12.80;61.80
14733;DHT22;7457;50.960;6.830;2023-04-25T11:44:53;12.70;60.70
14733;DHT22;7457;50.960;6.830;2023-04-25T11:47:18;12.50;59.90
14733;DHT22;7457;50.960;6.830;2023-04-25T11:49:44;12.60;60.80
14733;DHT22;7457;50.960;6.830;2023-04-25T11:52:09;12.70;60.60
14733;DHT22;7457;50.960;6.830;2023-04-25T11:54:36;13.00;62.40
14733;DHT22;7457;50.960;6.830;2023-04-25T11:57:03;13.30;60.20
14733;DHT22;7457;50.960;6.830;2023-04-25T11:59:29;13.60;60.90
14733;DHT22;7457;50.960;6.830;2023-04-25T12:01:55;14.10;60.40
14733;DHT22;7457;50.960;6.830;2023-04-25T12:04:24;14.60;60.10
14733;DHT22;7457;50.960;6.830;2023-04-25T12:06:54;15.20;59.50
14733;DHT22;7457;50.960;6.830;2023-04-25T12:09:33;15.80;57.70
14733;DHT22;7457;50.960;6.830;2023-04-25T12:12:00;16.40;56.30
14733;DHT22;7457;50.960;6.830;2023-04-25T12:14:33;16.80;56.80
14733;DHT22;7457;50.960;6.830;2023-04-25T12:17:00;17.20;55.40
14733;DHT22;7457;50.960;6.830;2023-04-25T12:19:31;17.40;53.90
14733;DHT22;7457;50.960;6.830;2023-04-25T12:21:59;17.20;51.60
14733;DHT22;7457;50.960;6.830;2023-04-25T12:24:26;16.80;51.40
14733;DHT22;7457;50.960;6.830;2023-04-25T12:27:03;16.20;51.00
14733;DHT22;7457;50.960;6.830;2023-04-25T12:29:31;15.60;51.00
14733;DHT22;7457;50.960;6.830;2023-04-25T12:31:57;14.90;51.00
14733;DHT22;7457;50.960;6.830;2023-04-25T12:34:23;14.30;51.90
14733;DHT22;7457;50.960;6.830;2023-04-25T12:36:50;13.80;52.80
14733;DHT22;7457;50.960;6.830;2023-04-25T12:39:17;13.50;53.30
14733;DHT22;7457;50.960;6.830;2023-04-25T12:41:43;13.10;53.60
14733;DHT22;7457;50.960;6.830;2023-04-25T12:44:09;12.80;53.60
14733;DHT22;7457;50.960;6.830;2023-04-25T12:46:35;12.50;53.70
14733;DHT22;7457;50.960;6.830;2023-04-25T12:49:01;12.30;54.10
14733;DHT22;7457;50.960;6.830;2023-04-25T12:51:29;12.00;55.00
14733;DHT22;7457;50.960;6.830;2023-04-25T12:53:54;11.80;55.60
14733;DHT22;7457;50.960;6.830;2023-04-25T12:56:20;11.60;56.00
14733;DHT22;7457;50.960;6.830;2023-04-25T12:58:46;11.40;56.50
14733;DHT22;7457;50.960;6.830;2023-04-25T13:01:13;11.30;57.40
14733;DHT22;7457;50.960;6.830;2023-04-25T13:03:39;11.20;57.40
14733;DHT22;7457;50.960;6.830;2023-04-25T13:06:06;11.20;57.30
14733;DHT22;7457;50.960;6.830;2023-04-25T13:08:32;11.20;57.20
14733;DHT22;7457;50.960;6.830;2023-04-25T13:10:58;11.20;57.30
14733;DHT22;7457;50.960;6.830;2023-04-25T13:13:24;11.20;58.00
14733;DHT22;7457;50.960;6.830;2023-04-25T13:15:50;11.30;57.20
14733;DHT22;7457;50.960;6.830;2023-04-25T13:18:15;11.30;56.70
14733;DHT22;7457;50.960;6.830;2023-04-25T13:20:41;11.30;56.20
14733;DHT22;7457;50.960;6.830;2023-04-25T13:23:07;11.30;56.40
14733;DHT22;7457;50.960;6.830;2023-04-25T13:25:32;11.40;56.80
14733;DHT22;7457;50.960;6.830;2023-04-25T13:27:58;11.50;58.60
14733;DHT22;7457;50.960;6.830;2023-04-25T13:30:24;11.70;58.40
14733;DHT22;7457;50.960;6.830;2023-04-25T13:32:49;12.00;58.30
14733;DHT22;7457;50.960;6.830;2023-04-25T13:35:16;12.30;56.00
14733;DHT22;7457;50.960;6.830;2023-04-25T13:37:42;12.50;55.90
14733;DHT22;7457;50.960;6.830;2023-04-25T13:40:10;12.50;53.50
14733;DHT22;7457;50.960;6.830;2023-04-25T13:42:37;12.30;53.10
14733;DHT22;7457;50.960;6.830;2023-04-25T13:45:03;12.30;54.10
14733;DHT22;7457;50.960;6.830;2023-04-25T13:47:29;12.20;53.90
14733;DHT22;7457;50.960;6.830;2023-04-25T13:49:56;12.20;53.80
14733;DHT22;7457;50.960;6.830;2023-04-25T13:52:21;12.30;53.50
14733;DHT22;7457;50.960;6.830;2023-04-25T13:54:49;12.30;53.10
14733;DHT22;7457;50.960;6.830;2023-04-25T13:57:15;12.40;53.00
14733;DHT22;7457;50.960;6.830;2023-04-25T13:59:41;12.40;53.50
14733;DHT22;7457;50.960;6.830;2023-04-25T14:02:07;12.50;53.00
14733;DHT22;7457;50.960;6.830;2023-04-25T14:04:33;12.50;51.80
14733;DHT22;7457;50.960;6.830;2023-04-25T14:06:58;12.50;51.70
14733;DHT22;7457;50.960;6.830;2023-04-25T14:09:25;12.30;51.70
14733;DHT22;7457;50.960;6.830;2023-04-25T14:11:52;12.10;53.00
14733;DHT22;7457;50.960;6.830;2023-04-25T14:14:19;11.90;52.90
14733;DHT22;7457;50.960;6.830;2023-04-25T14:16:45;11.80;52.70
14733;DHT22;7457;50.960;6.830;2023-04-25T14:19:11;11.60;52.40
14733;DHT22;7457;50.960;6.830;2023-04-25T14:21:37;11.50;51.80
14733;DHT22;7457;50.960;6.830;2023-04-25T14:24:02;11.50;52.70
14733;DHT22;7457;50.960;6.830;2023-04-25T14:26:28;11.50;52.70
14733;DHT22;7457;50.960;6.830;2023-04-25T14:28:54;11.60;52.10
14733;DHT22;7457;50.960;6.830;2023-04-25T14:31:19;11.60;52.20
14733;DHT22;7457;50.960;6.830;2023-04-25T14:33:46;11.40;52.00
14733;DHT22;7457;50.960;6.830;2023-04-25T14:36:11;11.20;52.30
14733;DHT22;7457;50.960;6.830;2023-04-25T14:38:37;11.10;53.00
14733;DHT22;7457;50.960;6.830;2023-04-25T14:41:03;11.00;53.80
14733;DHT22;7457;50.960;6.830;2023-04-25T14:43:29;11.00;54.70
14733;DHT22;7457;50.960;6.830;2023-04-25T14:45:54;11.10;55.20
14733;DHT22;7457;50.960;6.830;2023-04-25T14:48:20;11.10;55.50
14733;DHT22;7457;50.960;6.830;2023-04-25T14:50:46;11.10;55.60
14733;DHT22;7457;50.960;6.830;2023-04-25T14:53:12;11.10;55.50
14733;DHT22;7457;50.960;6.830;2023-04-25T14:55:38;11.20;55.80
14733;DHT22;7457;50.960;6.830;2023-04-25T14:58:04;11.30;55.60
14733;DHT22;7457;50.960;6.830;2023-04-25T15:00:30;11.40;56.40
14733;DHT22;7457;50.960;6.830;2023-04-25T15:02:57;11.50;56.40
14733;DHT22;7457;50.960;6.830;2023-04-25T15:05:24;11.60;56.30
14733;DHT22;7457;50.960;6.830;2023-04-25T15:07:49;11.70;55.70
14733;DHT22;7457;50.960;6.830;2023-04-25T15:10:17;11.80;55.50
14733;DHT22;7457;50.960;6.830;2023-04-25T15:12:43;11.80;55.20
14733;DHT22;7457;50.960;6.830;2023-04-25T15:15:09;11.90;55.30
14733;DHT22;7457;50.960;6.830;2023-04-25T15:17:40;11.90;54.80
14733;DHT22;7457;50.960;6.830;2023-04-25T15:20:07;11.90;54.50
14733;DHT22;7457;50.960;6.830;2023-04-25T15:22:35;11.90;53.80
14733;DHT22;7457;50.960;6.830;2023-04-25T15:25:01;12.00;53.90
14733;DHT22;7457;50.960;6.830;2023-04-25T15:27:28;11.90;53.80
14733;DHT22;7457;50.960;6.830;2023-04-25T15:29:53;11.90;53.90
14733;DHT22;7457;50.960;6.830;2023-04-25T15:32:19;11.90;54.20
14733;DHT22;7457;50.960;6.830;2023-04-25T15:34:46;11.90;54.10
14733;DHT22;7457;50.960;6.830;2023-04-25T15:37:11;11.90;54.30
14733;DHT22;7457;50.960;6.830;2023-04-25T15:39:37;12.00;54.40
14733;DHT22;7457;50.960;6.830;2023-04-25T15:42:03;12.00;54.10
14733;DHT22;7457;50.960;6.830;2023-04-25T15:44:28;12.00;53.90
14733;DHT22;7457;50.960;6.830;2023-04-25T15:46:54;12.10;54.30
14733;DHT22;7457;50.960;6.830;2023-04-25T15:49:20;12.00;54.40
14733;DHT22;7457;50.960;6.830;2023-04-25T15:51:50;11.90;54.70
14733;DHT22;7457;50.960;6.830;2023-04-25T15:54:17;11.80;55.10
14733;DHT22;7457;50.960;6.830;2023-04-25T15:56:43;11.70;55.50
14733;DHT22;7457;50.960;6.830;2023-04-25T15:59:10;11.60;55.10
14733;DHT22;7457;50.960;6.830;2023-04-25T16:01:35;11.50;54.90